sensor_id;sensor_type;location;lat;lon;timestamp;temperature;humidity
20045;DHT22;10183;47.808;9.476;2023-02-26T00:02:04;-0.80;99.90
20045;DHT22;10183;47.808;9.476;2023-02-26T00:04:30;-0.80;99.90
20045;DHT22;10183;47.808;9.476;2023-02-26T00:06:57;-0.80;99.90
20045;DHT22;10183;47.808;9.476;2023-02-26T00:09:23;-0.80;99.90
20045;DHT22;10183;47.808;9.476;2023-02-26T00:11:50;-0.90;99.90
20045;DHT22;10183;47.808;9.476;2023-02-26T00:14:16;-0.90;99.90
20045;DHT22;10183;47.808;9.476;2023-02-26T00:19:23;-1.00;99.90
20045;DHT22;10183;47.808;9.476;2023-02-26T00:21:50;-1.10;99.90
20045;DHT22;10183;47.808;9.476;2023-02-26T00:24:16;-1.20;99.90
20045;DHT22;10183;47.808;9.476;2023-02-26T00:26:42;-1.20;99.90
20045;DHT22;10183;47.808;9.476;2023-02-26T00:29:09;-1.30;99.90
20045;DHT22;10183;47.808;9.476;2023-02-26T00:31:35;-1.40;99.90
20045;DHT22;10183;47.808;9.476;2023-02-26T00:34:02;-1.40;99.90
20045;DHT22;10183;47.808;9.476;2023-02-26T00:41:46;-1.50;99.90
20045;DHT22;10183;47.808;9.476;2023-02-26T00:44:13;-1.50;99.90
20045;DHT22;10183;47.808;9.476;2023-02-26T00:47:08;-1.70;99.90
20045;DHT22;10183;47.808;9.476;2023-02-26T00:49:46;-1.80;99.90
20045;DHT22;10183;47.808;9.476;2023-02-26T00:55:05;-1.90;99.90
20045;DHT22;10183;47.808;9.476;2023-02-26T00:57:31;-2.00;99.90
20045;DHT22;10183;47.808;9.476;2023-02-26T00:59:58;-2.10;99.90
20045;DHT22;10183;47.808;9.476;2023-02-26T01:02:24;-2.00;99.90
20045;DHT22;10183;47.808;9.476;2023-02-26T01:04:51;-2.10;99.90
20045;DHT22;10183;47.808;9.476;2023-02-26T01:07:21;-2.10;99.90
20045;DHT22;10183;47.808;9.476;2023-02-26T01:09:49;-2.10;99.90
20045;DHT22;10183;47.808;9.476;2023-02-26T01:12:16;-2.10;99.90
20045;DHT22;10183;47.808;9.476;2023-02-26T01:14:42;-2.10;99.90
20045;DHT22;10183;47.808;9.476;2023-02-26T01:17:20;-2.00;99.90
20045;DHT22;10183;47.808;9.476;2023-02-26T01:20:04;-2.00;99.90
20045;DHT22;10183;47.808;9.476;2023-02-26T01:25:15;-2.10;99.90
20045;DHT22;10183;47.808;9.476;2023-02-26T01:27:43;-2.10;99.90
20045;DHT22;10183;47.808;9.476;2023-02-26T01:30:10;-2.10;99.90
20045;DHT22;10183;47.808;9.476;2023-02-26T01:37:55;-2.10;99.90
20045;DHT22;10183;47.808;9.476;2023-02-26T01:43:31;-2.10;99.90
20045;DHT22;10183;47.808;9.476;2023-02-26T01:46:20;-2.10;99.90
20045;DHT22;10183;47.808;9.476;2023-02-26T01:48:53;-2.10;99.90
20045;DHT22;10183;47.808;9.476;2023-02-26T01:51:41;-2.10;99.90
20045;DHT22;10183;47.808;9.476;2023-02-26T01:54:07;-2.30;99.90
20045;DHT22;10183;47.808;9.476;2023-02-26T01:56:34;-2.40;99.90
20045;DHT22;10183;47.808;9.476;2023-02-26T01:59:05;-2.40;99.90
20045;DHT22;10183;47.808;9.476;2023-02-26T02:01:35;-2.50;99.90
20045;DHT22;10183;47.808;9.476;2023-02-26T02:04:04;-2.50;99.90
20045;DHT22;10183;47.808;9.476;2023-02-26T02:06:31;-2.40;99.90
20045;DHT22;10183;47.808;9.476;2023-02-26T02:08:57;-2.30;99.90
20045;DHT22;10183;47.808;9.476;2023-02-26T02:11:24;-2.30;99.90
20045;DHT22;10183;47.808;9.476;2023-02-26T02:22:29;-2.00;99.90
20045;DHT22;10183;47.808;9.476;2023-02-26T02:33:20;-1.70;99.90
20045;DHT22;10183;47.808;9.476;2023-02-26T02:35:58;-1.70;99.90
20045;DHT22;10183;47.808;9.476;2023-02-26T02:38:36;-1.60;99.90
20045;DHT22;10183;47.808;9.476;2023-02-26T02:41:08;-1.60;99.90
20045;DHT22;10183;47.808;9.476;2023-02-26T02:43:38;-1.50;99.90
20045;DHT22;10183;47.808;9.476;2023-02-26T02:46:10;-1.50;99.90
20045;DHT22;10183;47.808;9.476;2023-02-26T02:51:11;-1.70;99.90
20045;DHT22;10183;47.808;9.476;2023-02-26T02:53:42;-1.80;99.90
20045;DHT22;10183;47.808;9.476;2023-02-26T02:56:15;-1.80;99.90
20045;DHT22;10183;47.808;9.476;2023-02-26T02:58:48;-1.80;99.90
20045;DHT22;10183;47.808;9.476;2023-02-26T03:01:18;-1.80;99.90
20045;DHT22;10183;47.808;9.476;2023-02-26T03:04:06;-1.80;99.90
20045;DHT22;10183;47.808;9.476;2023-02-26T03:06:33;-1.90;99.90
20045;DHT22;10183;47.808;9.476;2023-02-26T03:09:00;-1.90;99.90
20045;DHT22;10183;47.808;9.476;2023-02-26T03:11:26;-1.90;99.90
20045;DHT22;10183;47.808;9.476;2023-02-26T03:13:52;-1.90;99.90
20045;DHT22;10183;47.808;9.476;2023-02-26T03:21:55;-2.00;99.90
20045;DHT22;10183;47.808;9.476;2023-02-26T03:25:05;-2.00;99.90
20045;DHT22;10183;47.808;9.476;2023-02-26T03:27:42;-2.00;99.90
20045;DHT22;10183;47.808;9.476;2023-02-26T03:30:25;-2.00;99.90
20045;DHT22;10183;47.808;9.476;2023-02-26T03:33:01;-2.00;99.90
20045;DHT22;10183;47.808;9.476;2023-02-26T03:35:32;-2.00;99.90
20045;DHT22;10183;47.808;9.476;2023-02-26T03:38:05;-2.00;99.90
20045;DHT22;10183;47.808;9.476;2023-02-26T03:40:43;-2.00;99.90
20045;DHT22;10183;47.808;9.476;2023-02-26T03:43:29;-2.00;99.90
20045;DHT22;10183;47.808;9.476;2023-02-26T03:45:59;-2.00;99.90
20045;DHT22;10183;47.808;9.476;2023-02-26T03:48:29;-2.00;99.90
20045;DHT22;10183;47.808;9.476;2023-02-26T03:51:14;-2.00;99.90
20045;DHT22;10183;47.808;9.476;2023-02-26T03:53:52;-2.10;99.90
20045;DHT22;10183;47.808;9.476;2023-02-26T03:56:27;-2.10;99.90
20045;DHT22;10183;47.808;9.476;2023-02-26T03:58:54;-2.20;99.90
20045;DHT22;10183;47.808;9.476;2023-02-26T04:04:21;-2.30;99.90
20045;DHT22;10183;47.808;9.476;2023-02-26T04:06:48;-2.30;99.90
20045;DHT22;10183;47.808;9.476;2023-02-26T04:09:15;-2.30;99.90
20045;DHT22;10183;47.808;9.476;2023-02-26T04:11:42;-2.30;99.90
20045;DHT22;10183;47.808;9.476;2023-02-26T04:14:08;-2.30;99.90
20045;DHT22;10183;47.808;9.476;2023-02-26T04:16:34;-2.30;99.90
20045;DHT22;10183;47.808;9.476;2023-02-26T04:19:00;-2.30;99.90
20045;DHT22;10183;47.808;9.476;2023-02-26T04:21:27;-2.30;99.90
20045;DHT22;10183;47.808;9.476;2023-02-26T04:23:53;-2.30;99.90
20045;DHT22;10183;47.808;9.476;2023-02-26T04:26:19;-2.30;99.90
20045;DHT22;10183;47.808;9.476;2023-02-26T04:28:45;-2.30;99.90
20045;DHT22;10183;47.808;9.476;2023-02-26T04:31:11;-2.40;99.90
20045;DHT22;10183;47.808;9.476;2023-02-26T04:33:37;-2.40;99.90
20045;DHT22;10183;47.808;9.476;2023-02-26T04:36:04;-2.40;99.90
20045;DHT22;10183;47.808;9.476;2023-02-26T04:38:30;-2.50;99.90
20045;DHT22;10183;47.808;9.476;2023-02-26T04:40:56;-2.60;99.90
20045;DHT22;10183;47.808;9.476;2023-02-26T04:43:22;-2.80;99.90
20045;DHT22;10183;47.808;9.476;2023-02-26T04:45:49;-2.90;99.90
20045;DHT22;10183;47.808;9.476;2023-02-26T04:48:15;-2.90;99.90
20045;DHT22;10183;47.808;9.476;2023-02-26T04:50:42;-2.90;99.90
20045;DHT22;10183;47.808;9.476;2023-02-26T04:53:08;-2.90;99.90
20045;DHT22;10183;47.808;9.476;2023-02-26T04:55:35;-2.90;99.90
20045;DHT22;10183;47.808;9.476;2023-02-26T04:58:02;-2.80;99.90
20045;DHT22;10183;47.808;9.476;2023-02-26T05:00:28;-2.80;99.90
20045;DHT22;10183;47.808;9.476;2023-02-26T05:02:54;-2.90;99.90
20045;DHT22;10183;47.808;9.476;2023-02-26T05:05:21;-2.90;99.90
20045;DHT22;10183;47.808;9.476;2023-02-26T05:07:47;-3.00;99.90
20045;DHT22;10183;47.808;9.476;2023-02-26T05:10:13;-3.00;99.90
20045;DHT22;10183;47.808;9.476;2023-02-26T05:12:39;-3.10;99.90
20045;DHT22;10183;47.808;9.476;2023-02-26T05:15:05;-3.20;99.90
20045;DHT22;10183;47.808;9.476;2023-02-26T05:17:32;-3.20;99.90
20045;DHT22;10183;47.808;9.476;2023-02-26T05:19:58;-3.20;99.90
20045;DHT22;10183;47.808;9.476;2023-02-26T05:22:24;-3.20;99.90
20045;DHT22;10183;47.808;9.476;2023-02-26T05:24:50;-3.20;99.90
20045;DHT22;10183;47.808;9.476;2023-02-26T05:27:16;-3.20;99.90
20045;DHT22;10183;47.808;9.476;2023-02-26T05:29:43;-3.10;99.90
20045;DHT22;10183;47.808;9.476;2023-02-26T05:32:10;-3.10;99.90
20045;DHT22;10183;47.808;9.476;2023-02-26T05:34:36;-3.20;99.90
20045;DHT22;10183;47.808;9.476;2023-02-26T05:37:02;-3.20;99.90
20045;DHT22;10183;47.808;9.476;2023-02-26T05:39:28;-3.20;99.90
20045;DHT22;10183;47.808;9.476;2023-02-26T05:41:55;-3.20;99.90
20045;DHT22;10183;47.808;9.476;2023-02-26T05:44:22;-3.30;99.90
20045;DHT22;10183;47.808;9.476;2023-02-26T05:46:48;-3.40;99.90
20045;DHT22;10183;47.808;9.476;2023-02-26T05:49:14;-3.40;99.90
20045;DHT22;10183;47.808;9.476;2023-02-26T05:51:41;-3.50;99.90
20045;DHT22;10183;47.808;9.476;2023-02-26T05:54:08;-3.60;99.90
20045;DHT22;10183;47.808;9.476;2023-02-26T05:56:35;-3.80;99.90
20045;DHT22;10183;47.808;9.476;2023-02-26T05:59:02;-4.00;99.90
20045;DHT22;10183;47.808;9.476;2023-02-26T06:01:28;-4.00;99.90
20045;DHT22;10183;47.808;9.476;2023-02-26T06:03:54;-4.10;99.90
20045;DHT22;10183;47.808;9.476;2023-02-26T06:06:21;-4.20;99.90
20045;DHT22;10183;47.808;9.476;2023-02-26T06:08:47;-4.20;99.90
20045;DHT22;10183;47.808;9.476;2023-02-26T06:11:13;-4.30;99.90
20045;DHT22;10183;47.808;9.476;2023-02-26T06:13:39;-4.40;99.90
20045;DHT22;10183;47.808;9.476;2023-02-26T06:16:06;-4.40;99.90
20045;DHT22;10183;47.808;9.476;2023-02-26T06:18:32;-4.50;99.90
20045;DHT22;10183;47.808;9.476;2023-02-26T06:20:59;-4.50;99.90
20045;DHT22;10183;47.808;9.476;2023-02-26T06:23:26;-4.50;99.90
20045;DHT22;10183;47.808;9.476;2023-02-26T06:25:52;-4.50;99.90
20045;DHT22;10183;47.808;9.476;2023-02-26T06:28:18;-4.60;99.90
20045;DHT22;10183;47.808;9.476;2023-02-26T06:30:45;-4.50;99.90
20045;DHT22;10183;47.808;9.476;2023-02-26T06:33:11;-4.50;99.90
20045;DHT22;10183;47.808;9.476;2023-02-26T06:35:38;-4.50;99.90
20045;DHT22;10183;47.808;9.476;2023-02-26T06:38:05;-4.50;99.90
20045;DHT22;10183;47.808;9.476;2023-02-26T06:40:31;-4.40;99.90
20045;DHT22;10183;47.808;9.476;2023-02-26T06:42:57;-4.40;99.90
20045;DHT22;10183;47.808;9.476;2023-02-26T06:45:23;-4.40;99.90
20045;DHT22;10183;47.808;9.476;2023-02-26T06:47:50;-4.40;99.90
20045;DHT22;10183;47.808;9.476;2023-02-26T06:50:17;-4.40;99.90
20045;DHT22;10183;47.808;9.476;2023-02-26T06:52:43;-4.40;99.90
20045;DHT22;10183;47.808;9.476;2023-02-26T06:55:09;-4.30;99.90
20045;DHT22;10183;47.808;9.476;2023-02-26T06:57:36;-4.30;99.90
20045;DHT22;10183;47.808;9.476;2023-02-26T07:00:04;-4.20;99.90
20045;DHT22;10183;47.808;9.476;2023-02-26T07:02:30;-4.10;99.90
20045;DHT22;10183;47.808;9.476;2023-02-26T07:04:56;-4.10;99.90
20045;DHT22;10183;47.808;9.476;2023-02-26T07:07:24;-3.90;99.90
20045;DHT22;10183;47.808;9.476;2023-02-26T07:09:50;-3.90;99.90
20045;DHT22;10183;47.808;9.476;2023-02-26T07:12:16;-3.80;99.90
20045;DHT22;10183;47.808;9.476;2023-02-26T07:14:43;-3.70;99.90
20045;DHT22;10183;47.808;9.476;2023-02-26T07:17:11;-3.50;99.90
20045;DHT22;10183;47.808;9.476;2023-02-26T07:19:49;-3.30;99.90
20045;DHT22;10183;47.808;9.476;2023-02-26T07:22:17;-3.10;99.90
20045;DHT22;10183;47.808;9.476;2023-02-26T07:24:44;-3.10;99.90
20045;DHT22;10183;47.808;9.476;2023-02-26T07:27:11;-3.20;99.90
20045;DHT22;10183;47.808;9.476;2023-02-26T07:29:37;-3.20;99.90
20045;DHT22;10183;47.808;9.476;2023-02-26T07:32:04;-3.10;99.90
20045;DHT22;10183;47.808;9.476;2023-02-26T07:34:30;-3.10;99.90
20045;DHT22;10183;47.808;9.476;2023-02-26T07:36:57;-3.10;99.90
20045;DHT22;10183;47.808;9.476;2023-02-26T07:39:26;-3.00;99.90
20045;DHT22;10183;47.808;9.476;2023-02-26T07:41:53;-3.00;99.90
20045;DHT22;10183;47.808;9.476;2023-02-26T07:44:19;-3.10;99.90
20045;DHT22;10183;47.808;9.476;2023-02-26T07:46:45;-3.00;99.90
20045;DHT22;10183;47.808;9.476;2023-02-26T07:49:11;-2.90;99.90
20045;DHT22;10183;47.808;9.476;2023-02-26T07:51:38;-2.80;99.90
20045;DHT22;10183;47.808;9.476;2023-02-26T07:54:05;-2.70;99.90
20045;DHT22;10183;47.808;9.476;2023-02-26T07:56:31;-2.70;99.90
20045;DHT22;10183;47.808;9.476;2023-02-26T07:58:57;-2.50;99.90
20045;DHT22;10183;47.808;9.476;2023-02-26T08:01:24;-2.30;99.90
20045;DHT22;10183;47.808;9.476;2023-02-26T08:03:50;-2.30;99.90
20045;DHT22;10183;47.808;9.476;2023-02-26T08:06:16;-2.30;99.90
20045;DHT22;10183;47.808;9.476;2023-02-26T08:08:42;-2.40;99.90
20045;DHT22;10183;47.808;9.476;2023-02-26T08:11:08;-2.50;99.90
20045;DHT22;10183;47.808;9.476;2023-02-26T08:13:34;-2.50;99.90
20045;DHT22;10183;47.808;9.476;2023-02-26T08:16:00;-2.30;99.90
20045;DHT22;10183;47.808;9.476;2023-02-26T08:18:27;-2.30;99.90
20045;DHT22;10183;47.808;9.476;2023-02-26T08:20:53;-2.40;99.90
20045;DHT22;10183;47.808;9.476;2023-02-26T08:23:19;-2.60;99.90
20045;DHT22;10183;47.808;9.476;2023-02-26T08:25:45;-2.40;99.90
20045;DHT22;10183;47.808;9.476;2023-02-26T08:28:12;-2.20;99.90
20045;DHT22;10183;47.808;9.476;2023-02-26T08:30:38;-2.00;99.90
20045;DHT22;10183;47.808;9.476;2023-02-26T08:33:04;-1.80;99.90
20045;DHT22;10183;47.808;9.476;2023-02-26T08:35:30;-1.80;99.90
20045;DHT22;10183;47.808;9.476;2023-02-26T08:37:56;-2.00;99.90
20045;DHT22;10183;47.808;9.476;2023-02-26T08:40:23;-2.00;99.90
20045;DHT22;10183;47.808;9.476;2023-02-26T08:42:49;-2.00;99.90
20045;DHT22;10183;47.808;9.476;2023-02-26T08:45:15;-2.00;99.90
20045;DHT22;10183;47.808;9.476;2023-02-26T08:47:41;-1.90;99.90
20045;DHT22;10183;47.808;9.476;2023-02-26T08:50:09;-1.70;99.90
20045;DHT22;10183;47.808;9.476;2023-02-26T08:52:36;-1.80;99.90
20045;DHT22;10183;47.808;9.476;2023-02-26T08:55:04;-1.90;99.90
20045;DHT22;10183;47.808;9.476;2023-02-26T08:57:30;-2.00;99.90
20045;DHT22;10183;47.808;9.476;2023-02-26T08:59:56;-2.10;99.90
20045;DHT22;10183;47.808;9.476;2023-02-26T09:02:22;-2.00;99.90
20045;DHT22;10183;47.808;9.476;2023-02-26T09:04:49;-1.80;99.90
20045;DHT22;10183;47.808;9.476;2023-02-26T09:07:16;-1.70;99.90
20045;DHT22;10183;47.808;9.476;2023-02-26T09:09:42;-1.70;99.90
20045;DHT22;10183;47.808;9.476;2023-02-26T09:12:08;-1.40;99.90
20045;DHT22;10183;47.808;9.476;2023-02-26T09:14:34;-1.50;99.90
20045;DHT22;10183;47.808;9.476;2023-02-26T09:17:00;-1.30;99.90
20045;DHT22;10183;47.808;9.476;2023-02-26T09:19:27;-1.20;99.90
20045;DHT22;10183;47.808;9.476;2023-02-26T09:21:53;-1.00;99.90
20045;DHT22;10183;47.808;9.476;2023-02-26T09:24:19;-0.50;99.90
20045;DHT22;10183;47.808;9.476;2023-02-26T09:26:46;-0.50;99.90
20045;DHT22;10183;47.808;9.476;2023-02-26T09:29:13;-0.80;99.90
20045;DHT22;10183;47.808;9.476;2023-02-26T09:31:40;-0.80;99.90
20045;DHT22;10183;47.808;9.476;2023-02-26T09:34:07;-0.50;99.90
20045;DHT22;10183;47.808;9.476;2023-02-26T09:36:34;-0.40;99.90
20045;DHT22;10183;47.808;9.476;2023-02-26T09:39:02;-0.40;99.90
20045;DHT22;10183;47.808;9.476;2023-02-26T09:41:57;-0.10;99.90
20045;DHT22;10183;47.808;9.476;2023-02-26T09:44:32;-0.10;99.90
20045;DHT22;10183;47.808;9.476;2023-02-26T09:54:52;-0.50;99.90
20045;DHT22;10183;47.808;9.476;2023-02-26T09:57:45;-0.50;99.90
20045;DHT22;10183;47.808;9.476;2023-02-26T10:06:11;0.00;99.90
20045;DHT22;10183;47.808;9.476;2023-02-26T10:15:00;0.60;99.90
20045;DHT22;10183;47.808;9.476;2023-02-26T10:17:17;1.20;99.90
20045;DHT22;10183;47.808;9.476;2023-02-26T10:19:49;1.50;99.90
20045;DHT22;10183;47.808;9.476;2023-02-26T10:22:32;1.90;99.90
20045;DHT22;10183;47.808;9.476;2023-02-26T10:25:05;2.20;99.90
20045;DHT22;10183;47.808;9.476;2023-02-26T10:27:58;2.60;99.90
20045;DHT22;10183;47.808;9.476;2023-02-26T10:30:38;2.60;99.90
20045;DHT22;10183;47.808;9.476;2023-02-26T10:33:13;2.10;99.90
20045;DHT22;10183;47.808;9.476;2023-02-26T10:35:52;2.10;99.90
20045;DHT22;10183;47.808;9.476;2023-02-26T10:38:24;1.80;99.90
20045;DHT22;10183;47.808;9.476;2023-02-26T10:41:09;2.30;99.90
20045;DHT22;10183;47.808;9.476;2023-02-26T10:43:41;2.20;99.90
20045;DHT22;10183;47.808;9.476;2023-02-26T10:49:04;2.90;99.90
20045;DHT22;10183;47.808;9.476;2023-02-26T10:51:36;3.40;99.90
20045;DHT22;10183;47.808;9.476;2023-02-26T10:54:20;2.70;99.90
20045;DHT22;10183;47.808;9.476;2023-02-26T10:56:48;2.90;99.90
20045;DHT22;10183;47.808;9.476;2023-02-26T10:59:14;2.60;99.90
20045;DHT22;10183;47.808;9.476;2023-02-26T11:01:40;2.20;99.90
20045;DHT22;10183;47.808;9.476;2023-02-26T11:04:12;1.90;99.90
20045;DHT22;10183;47.808;9.476;2023-02-26T11:06:49;2.00;99.90
20045;DHT22;10183;47.808;9.476;2023-02-26T11:09:32;1.90;99.90
20045;DHT22;10183;47.808;9.476;2023-02-26T11:14:38;1.10;99.90
20045;DHT22;10183;47.808;9.476;2023-02-26T11:17:16;0.70;99.90
20045;DHT22;10183;47.808;9.476;2023-02-26T11:19:58;0.80;99.90
20045;DHT22;10183;47.808;9.476;2023-02-26T11:22:28;1.00;99.90
20045;DHT22;10183;47.808;9.476;2023-02-26T11:24:58;1.10;99.90
20045;DHT22;10183;47.808;9.476;2023-02-26T11:27:30;1.00;99.90
20045;DHT22;10183;47.808;9.476;2023-02-26T11:29:59;1.00;99.90
20045;DHT22;10183;47.808;9.476;2023-02-26T11:32:32;0.40;99.90
20045;DHT22;10183;47.808;9.476;2023-02-26T11:35:00;-0.10;99.90
20045;DHT22;10183;47.808;9.476;2023-02-26T11:37:38;-0.20;99.90
20045;DHT22;10183;47.808;9.476;2023-02-26T11:40:15;0.00;99.90
20045;DHT22;10183;47.808;9.476;2023-02-26T11:42:48;0.10;99.90
20045;DHT22;10183;47.808;9.476;2023-02-26T11:45:17;0.60;99.90
20045;DHT22;10183;47.808;9.476;2023-02-26T11:47:49;0.50;99.90
20045;DHT22;10183;47.808;9.476;2023-02-26T11:50:22;0.60;99.90
20045;DHT22;10183;47.808;9.476;2023-02-26T11:53:06;1.00;99.90
20045;DHT22;10183;47.808;9.476;2023-02-26T11:55:38;1.30;99.90
20045;DHT22;10183;47.808;9.476;2023-02-26T11:58:20;1.60;99.90
20045;DHT22;10183;47.808;9.476;2023-02-26T12:00:51;1.70;99.90
20045;DHT22;10183;47.808;9.476;2023-02-26T12:03:23;1.50;99.90
20045;DHT22;10183;47.808;9.476;2023-02-26T12:05:51;1.20;99.90
20045;DHT22;10183;47.808;9.476;2023-02-26T12:08:24;1.50;99.90
20045;DHT22;10183;47.808;9.476;2023-02-26T12:19:14;3.20;99.90
20045;DHT22;10183;47.808;9.476;2023-02-26T12:35:57;3.50;99.90
20045;DHT22;10183;47.808;9.476;2023-02-26T12:53:11;-0.50;99.90
20045;DHT22;10183;47.808;9.476;2023-02-26T13:04:22;-0.20;99.90
20045;DHT22;10183;47.808;9.476;2023-02-26T13:18:16;0.90;99.90
20045;DHT22;10183;47.808;9.476;2023-02-26T13:21:05;1.00;99.90
20045;DHT22;10183;47.808;9.476;2023-02-26T13:26:15;0.40;99.90
20045;DHT22;10183;47.808;9.476;2023-02-26T13:28:49;0.40;99.90
20045;DHT22;10183;47.808;9.476;2023-02-26T13:37:29;-0.40;99.90
20045;DHT22;10183;47.808;9.476;2023-02-26T13:42:51;-0.10;99.90
20045;DHT22;10183;47.808;9.476;2023-02-26T13:45:30;0.40;99.90
20045;DHT22;10183;47.808;9.476;2023-02-26T13:51:01;2.50;99.90
20045;DHT22;10183;47.808;9.476;2023-02-26T13:53:41;5.80;99.90
20045;DHT22;10183;47.808;9.476;2023-02-26T13:56:21;6.10;99.90
20045;DHT22;10183;47.808;9.476;2023-02-26T14:01:59;5.20;99.90
20045;DHT22;10183;47.808;9.476;2023-02-26T14:04:31;3.50;99.90
20045;DHT22;10183;47.808;9.476;2023-02-26T14:09:30;5.20;99.90
20045;DHT22;10183;47.808;9.476;2023-02-26T14:12:03;6.50;99.90
20045;DHT22;10183;47.808;9.476;2023-02-26T14:17:46;5.80;99.90
20045;DHT22;10183;47.808;9.476;2023-02-26T14:20:27;5.60;99.90
20045;DHT22;10183;47.808;9.476;2023-02-26T14:25:44;5.90;99.90
20045;DHT22;10183;47.808;9.476;2023-02-26T14:28:41;5.10;99.90
20045;DHT22;10183;47.808;9.476;2023-02-26T14:31:15;5.50;99.90
20045;DHT22;10183;47.808;9.476;2023-02-26T14:33:59;6.30;99.90
20045;DHT22;10183;47.808;9.476;2023-02-26T14:36:52;5.30;99.90
20045;DHT22;10183;47.808;9.476;2023-02-26T14:39:44;3.90;99.90
20045;DHT22;10183;47.808;9.476;2023-02-26T14:42:30;4.50;99.90
20045;DHT22;10183;47.808;9.476;2023-02-26T14:47:41;6.60;99.90
20045;DHT22;10183;47.808;9.476;2023-02-26T14:50:07;8.00;99.90
20045;DHT22;10183;47.808;9.476;2023-02-26T14:52:51;7.70;99.90
20045;DHT22;10183;47.808;9.476;2023-02-26T14:58:37;6.30;99.90
20045;DHT22;10183;47.808;9.476;2023-02-26T15:23:22;0.40;99.90
20045;DHT22;10183;47.808;9.476;2023-02-26T15:25:53;0.60;99.90
20045;DHT22;10183;47.808;9.476;2023-02-26T15:28:39;0.60;99.90
20045;DHT22;10183;47.808;9.476;2023-02-26T15:31:08;0.60;99.90
20045;DHT22;10183;47.808;9.476;2023-02-26T15:33:36;0.40;99.90
20045;DHT22;10183;47.808;9.476;2023-02-26T15:36:11;0.10;99.90
20045;DHT22;10183;47.808;9.476;2023-02-26T15:38:52;-0.70;99.90
20045;DHT22;10183;47.808;9.476;2023-02-26T15:41:19;-0.70;99.90
20045;DHT22;10183;47.808;9.476;2023-02-26T15:43:50;-0.80;99.90
20045;DHT22;10183;47.808;9.476;2023-02-26T15:46:27;-0.70;99.90
20045;DHT22;10183;47.808;9.476;2023-02-26T15:49:08;-0.70;99.90
20045;DHT22;10183;47.808;9.476;2023-02-26T15:51:37;-0.50;99.90
20045;DHT22;10183;47.808;9.476;2023-02-26T15:54:05;-0.10;99.90
20045;DHT22;10183;47.808;9.476;2023-02-26T15:56:35;0.20;99.90
20045;DHT22;10183;47.808;9.476;2023-02-26T15:59:16;1.00;99.90
20045;DHT22;10183;47.808;9.476;2023-02-26T16:01:43;2.50;99.90
20045;DHT22;10183;47.808;9.476;2023-02-26T16:04:14;4.00;99.90
20045;DHT22;10183;47.808;9.476;2023-02-26T16:06:44;4.60;99.90
20045;DHT22;10183;47.808;9.476;2023-02-26T16:09:27;4.70;99.90
20045;DHT22;10183;47.808;9.476;2023-02-26T16:11:57;3.80;99.90
20045;DHT22;10183;47.808;9.476;2023-02-26T16:14:29;3.20;99.90
20045;DHT22;10183;47.808;9.476;2023-02-26T16:16:57;3.20;99.90
20045;DHT22;10183;47.808;9.476;2023-02-26T16:19:30;3.10;99.90
20045;DHT22;10183;47.808;9.476;2023-02-26T16:21:58;3.60;99.90
20045;DHT22;10183;47.808;9.476;2023-02-26T16:24:27;3.50;99.90
20045;DHT22;10183;47.808;9.476;2023-02-26T16:26:59;3.30;99.90
20045;DHT22;10183;47.808;9.476;2023-02-26T16:29:30;3.30;99.90
20045;DHT22;10183;47.808;9.476;2023-02-26T16:31:59;2.30;99.90
20045;DHT22;10183;47.808;9.476;2023-02-26T16:34:42;1.70;99.90
20045;DHT22;10183;47.808;9.476;2023-02-26T16:43:01;1.10;99.90
20045;DHT22;10183;47.808;9.476;2023-02-26T16:48:03;0.40;99.90
20045;DHT22;10183;47.808;9.476;2023-02-26T16:50:33;0.10;99.90
20045;DHT22;10183;47.808;9.476;2023-02-26T16:55:39;-0.20;99.90
20045;DHT22;10183;47.808;9.476;2023-02-26T16:58:11;-0.40;99.90
20045;DHT22;10183;47.808;9.476;2023-02-26T17:00:39;-0.50;99.90
20045;DHT22;10183;47.808;9.476;2023-02-26T17:03:10;-0.60;99.90
20045;DHT22;10183;47.808;9.476;2023-02-26T17:05:42;-0.60;99.90
20045;DHT22;10183;47.808;9.476;2023-02-26T17:08:18;-0.70;99.90
20045;DHT22;10183;47.808;9.476;2023-02-26T17:10:47;-0.80;99.90
20045;DHT22;10183;47.808;9.476;2023-02-26T17:13:17;-0.80;99.90
20045;DHT22;10183;47.808;9.476;2023-02-26T17:15:46;-0.90;99.90
20045;DHT22;10183;47.808;9.476;2023-02-26T17:18:14;-1.00;99.90
20045;DHT22;10183;47.808;9.476;2023-02-26T17:20:40;-1.10;99.90
20045;DHT22;10183;47.808;9.476;2023-02-26T17:23:08;-1.20;99.90
20045;DHT22;10183;47.808;9.476;2023-02-26T17:25:39;-1.30;99.90
20045;DHT22;10183;47.808;9.476;2023-02-26T17:28:06;-1.40;99.90
20045;DHT22;10183;47.808;9.476;2023-02-26T17:30:33;-1.50;99.90
20045;DHT22;10183;47.808;9.476;2023-02-26T17:33:00;-1.60;99.90
20045;DHT22;10183;47.808;9.476;2023-02-26T17:35:28;-1.60;99.90
20045;DHT22;10183;47.808;9.476;2023-02-26T17:37:56;-1.60;99.90
20045;DHT22;10183;47.808;9.476;2023-02-26T17:40:29;-1.60;99.90
20045;DHT22;10183;47.808;9.476;2023-02-26T17:42:56;-1.60;99.90
20045;DHT22;10183;47.808;9.476;2023-02-26T17:45:24;-1.60;99.90
20045;DHT22;10183;47.808;9.476;2023-02-26T17:47:51;-1.60;99.90
20045;DHT22;10183;47.808;9.476;2023-02-26T17:53:04;-1.70;99.90
20045;DHT22;10183;47.808;9.476;2023-02-26T17:55:31;-1.90;99.90
20045;DHT22;10183;47.808;9.476;2023-02-26T17:57:58;-2.00;99.90
20045;DHT22;10183;47.808;9.476;2023-02-26T18:00:24;-2.10;99.90
20045;DHT22;10183;47.808;9.476;2023-02-26T18:02:50;-2.20;99.90
20045;DHT22;10183;47.808;9.476;2023-02-26T18:05:18;-2.30;99.90
20045;DHT22;10183;47.808;9.476;2023-02-26T18:07:45;-2.30;99.90
20045;DHT22;10183;47.808;9.476;2023-02-26T18:10:18;-2.30;99.90
20045;DHT22;10183;47.808;9.476;2023-02-26T18:12:44;-2.30;99.90
20045;DHT22;10183;47.808;9.476;2023-02-26T18:15:11;-2.30;99.90
20045;DHT22;10183;47.808;9.476;2023-02-26T18:17:37;-2.30;99.90
20045;DHT22;10183;47.808;9.476;2023-02-26T18:20:05;-2.30;99.90
20045;DHT22;10183;47.808;9.476;2023-02-26T18:22:32;-2.30;99.90
20045;DHT22;10183;47.808;9.476;2023-02-26T18:24:58;-2.40;99.90
20045;DHT22;10183;47.808;9.476;2023-02-26T18:27:25;-2.30;99.90
20045;DHT22;10183;47.808;9.476;2023-02-26T18:29:52;-2.30;99.90
20045;DHT22;10183;47.808;9.476;2023-02-26T18:32:21;-2.20;99.90
20045;DHT22;10183;47.808;9.476;2023-02-26T18:34:48;-2.20;99.90
20045;DHT22;10183;47.808;9.476;2023-02-26T18:37:19;-2.20;99.90
20045;DHT22;10183;47.808;9.476;2023-02-26T18:39:45;-2.20;99.90
20045;DHT22;10183;47.808;9.476;2023-02-26T18:42:23;-2.20;99.90
20045;DHT22;10183;47.808;9.476;2023-02-26T18:44:50;-2.20;99.90
20045;DHT22;10183;47.808;9.476;2023-02-26T18:47:18;-2.20;99.90
20045;DHT22;10183;47.808;9.476;2023-02-26T18:49:46;-2.20;99.90
20045;DHT22;10183;47.808;9.476;2023-02-26T18:52:13;-2.20;99.90
20045;DHT22;10183;47.808;9.476;2023-02-26T18:54:39;-2.20;99.90
20045;DHT22;10183;47.808;9.476;2023-02-26T18:57:06;-2.20;99.90
20045;DHT22;10183;47.808;9.476;2023-02-26T18:59:33;-2.30;99.90
20045;DHT22;10183;47.808;9.476;2023-02-26T19:02:00;-2.30;99.90
20045;DHT22;10183;47.808;9.476;2023-02-26T19:04:26;-2.30;99.90
20045;DHT22;10183;47.808;9.476;2023-02-26T19:06:53;-2.30;99.90
20045;DHT22;10183;47.808;9.476;2023-02-26T19:09:19;-2.30;99.90
20045;DHT22;10183;47.808;9.476;2023-02-26T19:11:46;-2.30;99.90
20045;DHT22;10183;47.808;9.476;2023-02-26T19:14:13;-2.20;99.90